createdAt,value
2023-10-06T00:01:22.561Z,2.78
2023-10-06T00:04:08.734Z,2.30
2023-10-06T00:06:55.453Z,2.60
2023-10-06T00:09:44.716Z,2.60
2023-10-06T00:12:32.839Z,2.60
2023-10-06T00:15:27.701Z,2.95
2023-10-06T00:18:18.083Z,3.35
2023-10-06T00:21:16.093Z,2.85
2023-10-06T00:24:01.658Z,2.83
2023-10-06T00:26:48.127Z,3.00
2023-10-06T00:29:36.710Z,3.25
2023-10-06T00:32:23.615Z,3.50
2023-10-06T00:35:11.217Z,3.40
2023-10-06T00:37:59.528Z,3.25
2023-10-06T00:40:53.506Z,3.20
2023-10-06T00:43:45.085Z,3.28
2023-10-06T00:46:31.113Z,3.55
2023-10-06T00:49:20.843Z,3.65
2023-10-06T00:52:08.035Z,3.35
2023-10-06T00:54:54.368Z,3.40
2023-10-06T00:57:41.844Z,3.53
2023-10-06T01:00:32.745Z,3.22
2023-10-06T01:03:18.539Z,3.50
2023-10-06T01:06:08.868Z,3.97
2023-10-06T01:09:07.921Z,3.30
2023-10-06T01:11:53.914Z,2.97
2023-10-06T01:14:42.316Z,3.25
2023-10-06T01:17:28.289Z,2.92
2023-10-06T01:20:34.058Z,2.97
2023-10-06T01:23:23.207Z,3.20
2023-10-06T01:26:09.474Z,2.80
2023-10-06T01:28:55.355Z,3.08
2023-10-06T01:31:43.128Z,3.15
2023-10-06T01:34:29.013Z,2.95
2023-10-06T01:37:17.162Z,3.38
2023-10-06T01:40:09.290Z,3.30
2023-10-06T01:42:58.292Z,3.20
2023-10-06T01:45:46.888Z,3.40
2023-10-06T01:48:41.907Z,3.15
2023-10-06T01:51:28.397Z,3.22
2023-10-06T01:54:13.981Z,3.20
2023-10-06T01:56:59.476Z,3.83
2023-10-06T01:59:45.445Z,4.18
2023-10-06T02:02:31.431Z,4.15
2023-10-06T02:05:17.399Z,4.30
2023-10-06T02:08:03.496Z,4.60
2023-10-06T02:10:49.467Z,4.32
2023-10-06T02:13:39.244Z,4.22
2023-10-06T02:16:27.762Z,4.18
2023-10-06T02:19:19.884Z,3.95
2023-10-06T02:22:08.018Z,4.37
2023-10-06T02:24:56.182Z,4.60
2023-10-06T02:27:51.642Z,4.47
2023-10-06T02:30:45.532Z,5.20
2023-10-06T02:33:32.341Z,5.28
2023-10-06T02:36:24.633Z,5.43
2023-10-06T02:39:11.859Z,5.88
2023-10-06T02:42:02.320Z,5.32
2023-10-06T02:44:48.328Z,5.47
2023-10-06T02:47:34.392Z,6.68
2023-10-06T02:50:25.433Z,5.35
2023-10-06T02:53:22.557Z,5.88
2023-10-06T02:56:10.357Z,5.38
2023-10-06T02:59:00.409Z,5.35
2023-10-06T03:01:52.464Z,5.47
2023-10-06T03:04:40.647Z,5.43
2023-10-06T03:07:26.470Z,5.85
2023-10-06T03:10:12.780Z,5.55
2023-10-06T03:12:58.628Z,5.90
2023-10-06T03:15:49.550Z,5.28
2023-10-06T03:18:36.306Z,5.50
2023-10-06T03:21:23.454Z,4.95
2023-10-06T03:24:17.381Z,4.93
2023-10-06T03:27:12.602Z,5.55
2023-10-06T03:30:12.245Z,4.85
2023-10-06T03:32:59.765Z,5.03
2023-10-06T03:35:49.882Z,5.07
2023-10-06T03:38:37.285Z,4.93
2023-10-06T03:41:32.625Z,4.80
2023-10-06T03:44:26.814Z,4.90
2023-10-06T03:47:16.709Z,4.35
2023-10-06T03:50:02.950Z,5.10
2023-10-06T03:52:49.204Z,4.35
2023-10-06T03:55:40.603Z,4.88
2023-10-06T03:58:29.529Z,4.25
2023-10-06T04:01:21.293Z,4.28
2023-10-06T04:04:08.633Z,5.00
2023-10-06T04:06:58.025Z,4.68
2023-10-06T04:09:50.489Z,4.72
2023-10-06T04:12:36.227Z,4.30
2023-10-06T04:15:21.866Z,4.88
2023-10-06T04:18:11.869Z,4.95
2023-10-06T04:20:57.635Z,4.70
2023-10-06T04:23:43.421Z,4.15
2023-10-06T04:26:29.267Z,4.20
2023-10-06T04:29:15.160Z,4.03
2023-10-06T04:32:01.992Z,4.18
2023-10-06T04:34:49.865Z,4.45
2023-10-06T04:37:38.077Z,4.35
2023-10-06T04:40:25.061Z,4.35
2023-10-06T04:43:14.632Z,3.80
2023-10-06T04:46:00.551Z,4.25
2023-10-06T04:48:46.098Z,4.13
2023-10-06T04:51:31.879Z,4.85
2023-10-06T04:54:17.615Z,4.63
2023-10-06T04:57:06.323Z,4.57
2023-10-06T04:59:54.488Z,4.55
2023-10-06T05:02:44.943Z,4.85
2023-10-06T05:05:35.135Z,4.80
2023-10-06T05:08:20.727Z,5.13
2023-10-06T05:11:09.654Z,4.60
2023-10-06T05:13:58.697Z,5.65
2023-10-06T05:16:44.446Z,5.47
2023-10-06T05:19:30.594Z,5.55
2023-10-06T05:22:16.265Z,6.47
2023-10-06T05:25:05.720Z,6.60
2023-10-06T05:27:51.916Z,5.97
2023-10-06T05:30:39.569Z,7.25
2023-10-06T05:33:26.551Z,6.22
2023-10-06T05:36:16.620Z,6.80
2023-10-06T05:39:04.342Z,7.40
2023-10-06T05:41:50.280Z,7.38
2023-10-06T05:44:37.401Z,7.75
2023-10-06T05:47:23.086Z,7.65
2023-10-06T05:50:10.353Z,7.47
2023-10-06T05:53:03.327Z,7.43
2023-10-06T05:55:51.351Z,8.27
2023-10-06T05:58:42.131Z,7.15
2023-10-06T06:01:35.081Z,7.70
2023-10-06T06:04:20.859Z,7.18
2023-10-06T06:07:09.466Z,7.85
2023-10-06T06:09:55.021Z,7.97
2023-10-06T06:12:43.776Z,8.20
2023-10-06T06:15:29.680Z,7.70
2023-10-06T06:18:16.890Z,7.70
2023-10-06T06:21:04.534Z,7.13
2023-10-06T06:23:50.444Z,7.55
2023-10-06T06:26:39.477Z,7.45
2023-10-06T06:29:25.497Z,7.50
2023-10-06T06:32:15.361Z,7.43
2023-10-06T06:35:00.945Z,7.35
2023-10-06T06:38:02.833Z,6.18
2023-10-06T06:40:51.056Z,7.03
2023-10-06T06:43:37.256Z,6.97
2023-10-06T06:46:22.941Z,5.95
2023-10-06T06:49:08.648Z,6.40
2023-10-06T06:51:54.528Z,5.80
2023-10-06T06:54:47.967Z,6.78
2023-10-06T06:57:33.687Z,5.68
2023-10-06T07:00:23.269Z,6.55
2023-10-06T07:03:09.766Z,6.68
2023-10-06T07:05:57.643Z,6.55
2023-10-06T07:08:48.126Z,6.18
2023-10-06T07:11:35.597Z,7.50
2023-10-06T07:14:21.749Z,8.23
2023-10-06T07:17:08.222Z,7.38
2023-10-06T07:19:53.958Z,7.43
2023-10-06T07:22:40.126Z,6.63
2023-10-06T07:25:28.032Z,7.40
2023-10-06T07:28:14.052Z,7.18
2023-10-06T07:31:00.363Z,7.18
2023-10-06T07:33:48.638Z,6.88
2023-10-06T07:36:37.081Z,7.13
2023-10-06T07:39:25.080Z,7.22
2023-10-06T07:42:18.052Z,7.43
2023-10-06T07:45:07.395Z,6.45
2023-10-06T07:47:58.656Z,7.10
2023-10-06T07:50:45.550Z,7.82
2023-10-06T07:53:37.261Z,7.03
2023-10-06T07:56:23.369Z,8.43
2023-10-06T07:59:10.192Z,8.60
2023-10-06T08:01:58.920Z,8.10
2023-10-06T08:04:45.474Z,7.28
2023-10-06T08:07:32.064Z,7.63
2023-10-06T08:10:19.859Z,8.35
2023-10-06T08:13:05.427Z,8.20
2023-10-06T08:15:52.332Z,8.52
2023-10-06T08:18:38.479Z,9.32
2023-10-06T08:21:24.388Z,8.65
2023-10-06T08:24:10.889Z,8.90
2023-10-06T08:26:58.445Z,8.43
2023-10-06T08:29:47.583Z,7.70
2023-10-06T08:32:34.047Z,7.97
2023-10-06T08:35:21.388Z,6.90
2023-10-06T08:38:08.955Z,7.15
2023-10-06T08:40:58.750Z,7.30
2023-10-06T08:43:48.289Z,6.68
2023-10-06T08:46:36.335Z,6.70
2023-10-06T08:49:23.102Z,6.70
2023-10-06T08:52:11.562Z,6.97
2023-10-06T08:55:00.279Z,6.70
2023-10-06T08:57:51.938Z,6.15
2023-10-06T09:00:38.427Z,6.17
2023-10-06T09:03:27.662Z,6.03
2023-10-06T09:06:16.618Z,6.10
2023-10-06T09:09:03.532Z,6.15
2023-10-06T09:11:49.202Z,6.75
2023-10-06T09:14:35.332Z,7.70
2023-10-06T09:17:32.974Z,7.38
2023-10-06T09:20:31.895Z,7.53
2023-10-06T09:23:41.064Z,5.95
2023-10-06T09:26:31.316Z,5.25
2023-10-06T09:29:33.175Z,5.65
2023-10-06T09:32:23.414Z,7.10
2023-10-06T09:35:26.720Z,6.18
2023-10-06T09:38:15.301Z,6.63
2023-10-06T09:41:01.207Z,6.50
2023-10-06T09:43:51.297Z,6.25
2023-10-06T09:46:40.244Z,6.70
2023-10-06T09:49:28.109Z,6.72
2023-10-06T09:52:15.301Z,6.88
2023-10-06T09:55:05.529Z,7.40
2023-10-06T09:57:55.195Z,7.40
2023-10-06T10:00:43.595Z,7.35
2023-10-06T10:03:31.580Z,8.23
2023-10-06T10:06:22.294Z,6.40
2023-10-06T10:09:08.740Z,7.10
2023-10-06T10:12:02.398Z,7.75
2023-10-06T10:15:20.718Z,6.95
2023-10-06T10:18:34.866Z,6.57
2023-10-06T10:21:23.740Z,7.38
2023-10-06T10:27:18.583Z,6.85
2023-10-06T10:30:16.485Z,7.70
2023-10-06T10:33:08.550Z,7.13
2023-10-06T10:36:13.419Z,7.45
2023-10-06T10:39:02.725Z,6.85
2023-10-06T10:41:48.645Z,7.20
2023-10-06T10:44:39.023Z,6.85
2023-10-06T10:47:27.946Z,7.25
2023-10-06T10:50:13.844Z,6.82
2023-10-06T10:53:00.221Z,6.53
2023-10-06T10:55:46.978Z,8.13
2023-10-06T10:58:50.970Z,8.00
2023-10-06T11:01:39.857Z,6.18
2023-10-06T11:04:30.251Z,6.28
2023-10-06T11:07:17.254Z,6.60
2023-10-06T11:10:04.180Z,7.15
2023-10-06T11:12:55.690Z,6.65
2023-10-06T11:15:42.200Z,6.47
2023-10-06T11:18:36.366Z,6.05
2023-10-06T11:21:27.866Z,6.03
2023-10-06T11:24:26.930Z,6.80
2023-10-06T11:27:17.969Z,6.03
2023-10-06T11:30:16.494Z,6.35
2023-10-06T11:33:08.024Z,5.53
2023-10-06T11:35:55.392Z,6.17
2023-10-06T11:38:41.347Z,6.60
2023-10-06T11:41:26.952Z,6.20
2023-10-06T11:44:15.527Z,7.72
2023-10-06T11:47:01.322Z,6.95
2023-10-06T11:50:02.943Z,7.05
2023-10-06T11:52:50.216Z,7.30
2023-10-06T11:55:35.984Z,7.28
2023-10-06T11:58:37.116Z,7.20
2023-10-06T12:01:37.618Z,6.65
2023-10-06T12:04:33.565Z,7.60
2023-10-06T12:07:23.837Z,7.55
2023-10-06T12:10:10.191Z,6.97
2023-10-06T12:12:56.538Z,7.05
2023-10-06T12:15:48.044Z,6.20
2023-10-06T12:18:36.694Z,7.75
2023-10-06T12:21:22.349Z,7.70
2023-10-06T12:24:12.805Z,7.90
2023-10-06T12:26:59.576Z,7.15
2023-10-06T12:29:45.639Z,6.72
2023-10-06T12:32:32.136Z,6.53
2023-10-06T12:35:20.850Z,7.90
2023-10-06T12:38:08.074Z,6.63
2023-10-06T12:40:54.607Z,6.72
2023-10-06T12:43:40.512Z,5.93
2023-10-06T12:46:26.188Z,5.45
2023-10-06T12:49:19.703Z,6.35
2023-10-06T12:52:07.424Z,6.03
2023-10-06T12:54:55.478Z,6.22
2023-10-06T12:57:42.271Z,6.38
2023-10-06T13:00:30.721Z,5.90
2023-10-06T13:03:19.600Z,6.03
2023-10-06T13:06:06.465Z,5.97
2023-10-06T13:08:52.489Z,6.00
2023-10-06T13:11:38.098Z,6.00
2023-10-06T13:14:24.233Z,7.07
2023-10-06T13:17:11.187Z,6.53
2023-10-06T13:19:57.309Z,6.88
2023-10-06T13:22:46.015Z,7.20
2023-10-06T13:25:32.944Z,7.43
2023-10-06T13:28:19.417Z,6.65
2023-10-06T13:31:06.272Z,7.20
2023-10-06T13:33:53.085Z,7.50
2023-10-06T13:36:42.812Z,8.27
2023-10-06T13:39:29.616Z,8.60
2023-10-06T13:42:16.745Z,8.35
2023-10-06T13:45:02.476Z,8.00
2023-10-06T13:47:54.371Z,7.60
2023-10-06T13:50:41.729Z,8.20
2023-10-06T13:53:27.611Z,8.45
2023-10-06T13:56:13.588Z,8.05
2023-10-06T13:59:00.251Z,7.53
2023-10-06T14:01:48.440Z,8.23
2023-10-06T14:04:34.042Z,8.30
2023-10-06T14:07:22.498Z,7.85
2023-10-06T14:10:14.200Z,7.70
2023-10-06T14:13:19.099Z,8.15
2023-10-06T14:16:10.915Z,9.00
2023-10-06T14:18:57.823Z,7.47
2023-10-06T14:21:43.433Z,7.68
2023-10-06T14:24:35.750Z,7.22
2023-10-06T14:27:21.839Z,7.65
2023-10-06T14:30:10.398Z,7.97
2023-10-06T14:33:11.148Z,7.18
2023-10-06T14:36:00.322Z,7.28
2023-10-06T14:38:48.468Z,6.95
2023-10-06T14:41:52.872Z,6.95
2023-10-06T14:45:07.361Z,6.85
2023-10-06T14:47:53.100Z,6.60
2023-10-06T14:50:39.342Z,6.85
2023-10-06T14:53:29.707Z,6.25
2023-10-06T14:56:18.622Z,5.78
2023-10-06T14:59:11.186Z,6.43
2023-10-06T15:01:57.511Z,6.57
2023-10-06T15:04:46.039Z,6.15
2023-10-06T15:07:38.071Z,5.70
2023-10-06T15:10:23.832Z,5.68
2023-10-06T15:13:14.303Z,5.93
2023-10-06T15:16:02.150Z,6.28
2023-10-06T15:18:49.005Z,6.43
2023-10-06T15:21:40.470Z,7.00
2023-10-06T15:24:26.522Z,5.30
2023-10-06T15:27:14.590Z,6.05
2023-10-06T15:30:00.468Z,5.88
2023-10-06T15:32:46.225Z,5.07
2023-10-06T15:35:37.250Z,5.75
2023-10-06T15:38:23.049Z,5.43
2023-10-06T15:41:11.900Z,5.93
2023-10-06T15:44:05.161Z,5.40
2023-10-06T15:46:58.455Z,5.63
2023-10-06T15:49:45.075Z,5.07
2023-10-06T15:52:30.859Z,5.95
2023-10-06T15:55:17.204Z,5.35
2023-10-06T15:58:05.512Z,4.63
2023-10-06T16:00:52.123Z,5.65
2023-10-06T16:03:39.907Z,5.07
2023-10-06T16:06:27.283Z,5.28
2023-10-06T16:09:17.817Z,4.85
2023-10-06T16:15:10.001Z,6.05
2023-10-06T16:17:56.486Z,5.10
2023-10-06T16:20:44.943Z,5.30
2023-10-06T16:23:30.925Z,5.75
2023-10-06T16:26:17.347Z,5.90
2023-10-06T16:29:04.791Z,6.43
2023-10-06T16:31:51.931Z,6.32
2023-10-06T16:34:38.067Z,5.75
2023-10-06T16:37:25.276Z,5.88
2023-10-06T16:40:14.019Z,6.68
2023-10-06T16:43:03.026Z,6.20
2023-10-06T16:45:48.585Z,5.68
2023-10-06T16:48:39.434Z,5.75
2023-10-06T16:51:25.277Z,5.07
2023-10-06T16:54:11.614Z,5.13
2023-10-06T16:56:57.359Z,5.30
2023-10-06T16:59:43.575Z,5.30
2023-10-06T17:02:30.437Z,6.10
2023-10-06T17:05:16.136Z,5.00
2023-10-06T17:08:06.060Z,5.55
2023-10-06T17:10:51.605Z,5.30
2023-10-06T17:13:39.678Z,6.40
2023-10-06T17:16:30.165Z,6.20
2023-10-06T17:19:17.607Z,5.30
2023-10-06T17:22:03.604Z,5.50
2023-10-06T17:24:53.168Z,5.22
2023-10-06T17:27:38.706Z,5.40
2023-10-06T17:30:24.587Z,5.45
2023-10-06T17:33:11.054Z,5.13
2023-10-06T17:35:58.168Z,4.57
2023-10-06T17:38:44.589Z,5.00
2023-10-06T17:41:30.379Z,4.60
2023-10-06T17:44:16.510Z,4.57
2023-10-06T17:47:02.424Z,4.82
2023-10-06T17:49:48.764Z,5.25
2023-10-06T17:52:34.648Z,4.15
2023-10-06T17:55:20.907Z,5.20
2023-10-06T17:58:09.235Z,6.13
2023-10-06T18:00:55.240Z,5.57
2023-10-06T18:03:41.450Z,5.40
2023-10-06T18:06:27.474Z,5.30
2023-10-06T18:09:14.866Z,4.95
2023-10-06T18:12:15.025Z,4.32
2023-10-06T18:15:08.316Z,4.50
2023-10-06T18:17:53.979Z,4.47
2023-10-06T18:20:41.588Z,3.92
2023-10-06T18:23:27.655Z,4.93
2023-10-06T18:26:14.848Z,4.10
2023-10-06T18:29:03.403Z,4.38
2023-10-06T18:31:49.117Z,3.58
2023-10-06T18:34:35.421Z,3.55
2023-10-06T18:37:21.640Z,3.70
2023-10-06T18:40:14.615Z,3.75
2023-10-06T18:43:06.248Z,3.42
2023-10-06T18:45:56.503Z,3.83
2023-10-06T18:48:43.516Z,3.88
2023-10-06T18:51:29.300Z,3.50
2023-10-06T18:54:17.313Z,4.78
2023-10-06T18:57:03.108Z,3.47
2023-10-06T18:59:50.417Z,3.90
2023-10-06T19:02:37.752Z,3.63
2023-10-06T19:05:24.742Z,4.00
2023-10-06T19:08:12.582Z,4.20
2023-10-06T19:10:58.555Z,4.55
2023-10-06T19:13:44.995Z,4.35
2023-10-06T19:16:30.994Z,4.50
2023-10-06T19:19:17.083Z,4.28
2023-10-06T19:22:04.433Z,4.07
2023-10-06T19:24:50.215Z,4.15
2023-10-06T19:27:35.816Z,4.85
2023-10-06T19:30:21.406Z,4.20
2023-10-06T19:33:07.259Z,4.40
2023-10-06T19:36:01.147Z,4.60
2023-10-06T19:38:54.558Z,4.13
2023-10-06T19:41:44.503Z,3.97
2023-10-06T19:44:35.714Z,4.45
2023-10-06T19:47:26.556Z,5.00
2023-10-06T19:50:15.990Z,4.25
2023-10-06T19:53:01.818Z,4.25
2023-10-06T19:55:50.148Z,4.22
2023-10-06T19:58:36.319Z,3.80
2023-10-06T20:01:25.315Z,4.53
2023-10-06T20:04:11.857Z,4.40
2023-10-06T20:06:57.514Z,4.13
2023-10-06T20:09:45.580Z,4.10
2023-10-06T20:12:33.546Z,4.70
2023-10-06T20:15:22.306Z,4.22
2023-10-06T20:18:08.276Z,4.50
2023-10-06T20:20:54.558Z,4.55
2023-10-06T20:23:41.131Z,4.47
2023-10-06T20:26:28.704Z,4.70
2023-10-06T20:29:14.632Z,5.00
2023-10-06T20:32:00.114Z,4.78
2023-10-06T20:34:51.387Z,4.68
2023-10-06T20:37:39.284Z,4.45
2023-10-06T20:40:32.208Z,3.90
2023-10-06T20:43:20.912Z,4.68
2023-10-06T20:46:10.028Z,4.97
2023-10-06T20:48:55.558Z,4.00
2023-10-06T20:51:49.534Z,4.50
2023-10-06T20:54:35.464Z,4.50
2023-10-06T20:57:23.521Z,4.50
2023-10-06T21:00:11.126Z,4.30
2023-10-06T21:02:56.855Z,5.13
2023-10-06T21:05:45.387Z,4.72
2023-10-06T21:08:32.048Z,4.78
2023-10-06T21:11:17.749Z,4.85
2023-10-06T21:14:05.922Z,5.50
2023-10-06T21:16:51.586Z,4.82
2023-10-06T21:19:37.705Z,5.10
2023-10-06T21:22:28.269Z,5.07
2023-10-06T21:25:15.197Z,4.70
2023-10-06T21:28:01.775Z,5.30
2023-10-06T21:30:50.369Z,4.70
2023-10-06T21:33:36.109Z,5.00
2023-10-06T21:36:21.759Z,4.50
2023-10-06T21:39:08.046Z,4.30
2023-10-06T21:41:54.485Z,3.85
2023-10-06T21:44:42.579Z,4.75
2023-10-06T21:47:28.721Z,4.22
2023-10-06T21:50:16.101Z,4.03
2023-10-06T21:53:02.328Z,4.40
2023-10-06T21:55:48.235Z,4.20
2023-10-06T21:58:37.704Z,4.10
2023-10-06T22:01:24.590Z,4.40
2023-10-06T22:04:12.638Z,4.00
2023-10-06T22:06:58.924Z,4.15
2023-10-06T22:09:47.219Z,4.13
2023-10-06T22:12:34.139Z,4.20
2023-10-06T22:15:21.066Z,3.75
2023-10-06T22:18:08.471Z,4.00
2023-10-06T22:20:56.792Z,3.72
2023-10-06T22:23:43.538Z,4.00
2023-10-06T22:26:52.643Z,3.85
2023-10-06T22:29:38.598Z,3.50
2023-10-06T22:32:25.628Z,3.97
2023-10-06T22:35:11.447Z,4.20
2023-10-06T22:37:57.074Z,3.45
2023-10-06T22:40:43.149Z,3.63
2023-10-06T22:43:30.462Z,3.40
2023-10-06T22:46:16.577Z,3.67
2023-10-06T22:49:04.999Z,3.35
2023-10-06T22:51:53.064Z,3.17
2023-10-06T22:54:38.699Z,2.65
2023-10-06T22:57:24.338Z,2.83
2023-10-06T23:00:11.305Z,3.28
2023-10-06T23:02:58.060Z,3.45
2023-10-06T23:05:45.028Z,3.05
2023-10-06T23:08:31.167Z,3.35
2023-10-06T23:11:17.250Z,2.90
2023-10-06T23:14:05.180Z,3.15
2023-10-06T23:16:51.228Z,2.92
2023-10-06T23:19:37.175Z,2.92
2023-10-06T23:22:24.737Z,2.95
2023-10-06T23:25:13.455Z,3.08
2023-10-06T23:27:59.367Z,3.17
2023-10-06T23:30:48.639Z,2.88
2023-10-06T23:33:35.109Z,3.25
2023-10-06T23:36:20.968Z,2.75
2023-10-06T23:39:09.985Z,2.50
2023-10-06T23:41:55.768Z,2.60
2023-10-06T23:44:49.195Z,2.53
2023-10-06T23:47:36.440Z,3.00
2023-10-06T23:50:23.182Z,2.70
2023-10-06T23:53:12.320Z,2.60
2023-10-06T23:56:02.055Z,2.25
2023-10-06T23:58:48.445Z,3.00
